createdAt,value
2019-01-25T00:00:51.733Z,55.60
2019-01-25T00:07:36.014Z,48.43
2019-01-25T00:14:21.162Z,50.87
2019-01-25T00:21:09.625Z,51.57
2019-01-25T00:27:53.933Z,42.43
2019-01-25T00:34:44.676Z,40.77
2019-01-25T00:41:30.350Z,40.20
2019-01-25T00:48:16.074Z,38.63
2019-01-25T00:55:00.317Z,41.50
2019-01-25T01:01:44.575Z,45.47
2019-01-25T01:08:28.814Z,44.77
2019-01-25T01:15:13.246Z,45.33
2019-01-25T01:21:57.486Z,48.23
2019-01-25T01:28:48.035Z,50.17
2019-01-25T01:35:34.725Z,52.33
2019-01-25T01:42:18.979Z,51.80
2019-01-25T01:49:03.255Z,46.23
2019-01-25T01:55:47.506Z,52.83
2019-01-25T02:02:31.733Z,56.50
2019-01-25T02:09:15.986Z,53.97
2019-01-25T02:16:00.206Z,53.57
2019-01-25T02:22:44.448Z,55.27
2019-01-25T02:29:28.723Z,52.90
2019-01-25T02:36:12.938Z,53.43
2019-01-25T02:42:57.169Z,51.73
2019-01-25T02:49:41.397Z,57.10
2019-01-25T02:56:25.623Z,52.07
2019-01-25T03:03:09.948Z,56.33
2019-01-25T03:09:54.161Z,58.13
2019-01-25T03:16:38.422Z,56.03
2019-01-25T03:23:22.630Z,54.80
2019-01-25T03:30:08.302Z,59.20
2019-01-25T03:36:52.535Z,54.40
2019-01-25T03:43:36.819Z,53.37
2019-01-25T03:50:23.208Z,52.47
2019-01-25T03:57:07.420Z,49.03
2019-01-25T04:03:52.247Z,53.47
2019-01-25T04:10:37.293Z,58.73
2019-01-25T04:17:21.519Z,61.07
2019-01-25T04:24:08.615Z,61.90
2019-01-25T04:30:55.831Z,57.23
2019-01-25T04:37:40.034Z,66.87
2019-01-25T04:44:24.266Z,66.03
2019-01-25T04:51:08.742Z,67.47
2019-01-25T04:57:52.986Z,66.67
2019-01-25T05:04:37.202Z,71.17
2019-01-25T05:11:21.430Z,68.40
2019-01-25T05:18:06.083Z,66.20
2019-01-25T05:24:50.932Z,61.40
2019-01-25T05:31:35.136Z,66.87
2019-01-25T05:38:19.344Z,59.03
2019-01-25T05:45:09.182Z,68.33
2019-01-25T05:51:53.379Z,61.97
2019-01-25T06:52:33.650Z,71.60
2019-01-25T06:59:22.230Z,61.90
2019-01-25T07:06:11.132Z,54.77
2019-01-25T07:12:57.966Z,60.47
2019-01-25T07:19:42.193Z,65.87
2019-01-25T07:26:26.446Z,67.17
2019-01-25T07:33:10.656Z,60.70
2019-01-25T07:39:54.913Z,62.87
2019-01-25T07:46:39.116Z,59.43
2019-01-25T07:53:23.363Z,66.97
2019-01-25T08:00:08.230Z,59.90
2019-01-25T08:06:52.490Z,65.23
2019-01-25T08:13:42.827Z,58.63
2019-01-25T08:20:27.061Z,59.37
2019-01-25T08:27:11.332Z,54.97
2019-01-25T08:33:55.531Z,57.20
2019-01-25T08:40:41.884Z,60.97
2019-01-25T08:47:24.001Z,57.07
2019-01-25T08:54:08.188Z,51.97
2019-01-25T09:00:52.394Z,54.77
2019-01-25T09:07:36.634Z,46.83
2019-01-25T09:14:20.845Z,49.73
2019-01-25T09:21:05.098Z,56.43
2019-01-25T09:27:49.314Z,46.40
2019-01-25T09:34:33.509Z,49.80
2019-01-25T09:41:17.736Z,46.93
2019-01-25T09:48:01.941Z,51.70
2019-01-25T09:54:46.189Z,47.87
2019-01-25T10:01:31.960Z,51.23
2019-01-25T10:08:16.162Z,53.07
2019-01-25T10:15:00.385Z,47.90
2019-01-25T10:21:47.409Z,48.73
2019-01-25T10:28:32.737Z,46.83
2019-01-25T10:35:17.548Z,46.40
2019-01-25T10:42:02.338Z,51.30
2019-01-25T10:48:46.546Z,47.63
2019-01-25T10:55:30.774Z,49.60
2019-01-25T11:02:14.985Z,45.40
2019-01-25T11:08:59.218Z,41.47
2019-01-25T11:15:43.447Z,28.63
2019-01-25T11:22:27.742Z,28.63
2019-01-25T11:29:11.906Z,29.80
2019-01-25T11:35:56.890Z,27.37
2019-01-25T11:42:41.581Z,35.30
2019-01-25T11:49:25.789Z,34.33
2019-01-25T11:56:10.142Z,27.13
2019-01-25T12:17:33.801Z,31.40
2019-01-25T12:24:18.022Z,29.17
2019-01-25T12:31:03.313Z,26.57
2019-01-25T12:37:48.401Z,25.43
2019-01-25T12:44:32.629Z,33.73
2019-01-25T12:51:23.138Z,31.47
2019-01-25T12:58:07.421Z,33.43
2019-01-25T13:04:51.621Z,32.77
2019-01-25T13:11:35.837Z,34.20
2019-01-25T13:18:20.101Z,40.17
2019-01-25T13:25:04.482Z,35.73
2019-01-25T13:31:48.743Z,37.93
2019-01-25T13:38:32.993Z,34.67
2019-01-25T13:45:18.041Z,33.57
2019-01-25T13:52:03.477Z,31.70
2019-01-25T14:15:06.058Z,29.87
2019-01-25T14:21:50.380Z,30.83
2019-01-25T14:28:34.629Z,34.37
2019-01-25T14:35:38.084Z,31.57
2019-01-25T14:42:22.338Z,33.67
2019-01-25T14:49:07.146Z,32.30
2019-01-25T14:56:07.311Z,36.47
2019-01-25T15:02:51.568Z,32.63
2019-01-25T15:09:36.085Z,37.50
2019-01-25T15:16:20.399Z,32.30
2019-01-25T15:23:05.594Z,31.40
2019-01-25T15:29:49.801Z,32.47
2019-01-25T15:36:34.451Z,30.13
2019-01-25T15:43:18.678Z,29.93
2019-01-25T15:50:03.016Z,26.30
2019-01-25T15:56:48.271Z,25.27
2019-01-25T16:03:32.506Z,14.67
2019-01-25T16:10:17.762Z,20.57
2019-01-25T16:17:01.982Z,15.03
2019-01-25T16:23:46.221Z,18.23
2019-01-25T16:30:34.337Z,12.43
2019-01-25T16:37:18.594Z,10.30
2019-01-25T16:44:02.844Z,13.37
2019-01-25T16:50:47.133Z,13.00
2019-01-25T16:57:31.354Z,12.07
2019-01-25T17:04:15.590Z,12.97
2019-01-25T17:10:59.834Z,37.00
2019-01-25T17:18:10.534Z,23.77
2019-01-25T17:32:00.951Z,30.93
2019-01-25T17:38:45.397Z,28.67
2019-01-25T17:45:29.659Z,27.67
2019-01-25T17:52:13.930Z,30.60
2019-01-25T17:59:00.321Z,28.47
2019-01-25T18:05:44.673Z,22.47
2019-01-25T18:12:28.943Z,37.33
2019-01-25T18:19:13.669Z,22.33
2019-01-25T18:26:06.457Z,20.37
2019-01-25T18:32:50.790Z,22.60
2019-01-25T18:39:35.929Z,21.63
2019-01-25T18:46:24.302Z,20.27
2019-01-25T18:53:08.533Z,16.83
2019-01-25T18:59:52.875Z,20.43
2019-01-25T19:06:37.195Z,15.17
2019-01-25T19:13:24.956Z,18.73
2019-01-25T19:20:11.067Z,14.00
2019-01-25T19:27:28.069Z,16.13
2019-01-25T19:34:20.460Z,11.03
2019-01-25T19:41:06.553Z,13.63
2019-01-25T19:48:07.650Z,14.33
2019-01-25T19:55:00.246Z,12.43
2019-01-25T20:09:24.062Z,16.13
2019-01-25T20:16:13.058Z,15.13
2019-01-25T20:23:04.445Z,15.80
2019-01-25T20:29:50.025Z,16.57
2019-01-25T20:36:35.593Z,15.60
2019-01-25T20:43:21.007Z,16.23
2019-01-25T20:50:08.914Z,12.00
2019-01-25T20:57:07.135Z,11.77
2019-01-25T21:03:51.343Z,11.30
2019-01-25T21:10:35.599Z,12.17
2019-01-25T21:17:19.841Z,10.67
2019-01-25T21:24:04.225Z,12.77
2019-01-25T21:30:48.484Z,12.37
2019-01-25T21:37:32.758Z,12.47
2019-01-25T21:44:16.969Z,9.67
2019-01-25T21:51:01.214Z,11.93
2019-01-25T21:57:45.501Z,10.37
2019-01-25T22:04:29.743Z,9.87
2019-01-25T22:11:14.057Z,9.70
2019-01-25T22:17:58.349Z,9.47
2019-01-25T22:24:43.110Z,13.87
2019-01-25T22:31:27.872Z,10.07
2019-01-25T22:38:12.321Z,10.70
2019-01-25T22:44:56.565Z,10.87
2019-01-25T22:51:40.995Z,10.27
2019-01-25T22:58:25.218Z,11.37
2019-01-25T23:05:24.846Z,10.43
2019-01-25T23:12:28.193Z,12.50
2019-01-25T23:19:13.370Z,17.33
2019-01-25T23:25:58.024Z,10.00
2019-01-25T23:32:56.442Z,13.43
2019-01-25T23:39:42.577Z,10.67
2019-01-25T23:46:28.814Z,12.47
2019-01-25T23:53:13.217Z,14.67
2019-01-25T23:59:57.791Z,12.93
